sensor_id;sensor_type;location;lat;lon;timestamp;P1;durP1;ratioP1;P2;durP2;ratioP2
49784;SDS011;35679;38.732;-121.358;2023-09-18T00:01:45;5.78;;;4.85;;
49784;SDS011;35679;38.732;-121.358;2023-09-18T00:04:35;6.68;;;5.05;;
49784;SDS011;35679;38.732;-121.358;2023-09-18T00:07:24;8.48;;;5.15;;
49784;SDS011;35679;38.732;-121.358;2023-09-18T00:10:13;5.20;;;4.70;;
49784;SDS011;35679;38.732;-121.358;2023-09-18T00:13:02;6.57;;;5.05;;
49784;SDS011;35679;38.732;-121.358;2023-09-18T00:15:55;7.38;;;4.97;;
49784;SDS011;35679;38.732;-121.358;2023-09-18T00:18:48;6.93;;;4.80;;
49784;SDS011;35679;38.732;-121.358;2023-09-18T00:21:38;8.52;;;5.10;;
49784;SDS011;35679;38.732;-121.358;2023-09-18T00:24:27;7.43;;;4.95;;
49784;SDS011;35679;38.732;-121.358;2023-09-18T00:27:17;6.05;;;4.95;;
49784;SDS011;35679;38.732;-121.358;2023-09-18T00:30:06;5.03;;;4.53;;
49784;SDS011;35679;38.732;-121.358;2023-09-18T00:32:56;5.55;;;4.78;;
49784;SDS011;35679;38.732;-121.358;2023-09-18T00:35:46;5.43;;;4.90;;
49784;SDS011;35679;38.732;-121.358;2023-09-18T00:38:36;5.85;;;4.50;;
49784;SDS011;35679;38.732;-121.358;2023-09-18T00:41:27;5.60;;;4.45;;
49784;SDS011;35679;38.732;-121.358;2023-09-18T00:44:16;5.00;;;4.55;;
49784;SDS011;35679;38.732;-121.358;2023-09-18T00:47:07;6.40;;;4.60;;
49784;SDS011;35679;38.732;-121.358;2023-09-18T00:49:57;7.65;;;4.68;;
49784;SDS011;35679;38.732;-121.358;2023-09-18T00:52:47;5.38;;;4.72;;
49784;SDS011;35679;38.732;-121.358;2023-09-18T00:55:37;6.60;;;5.00;;
49784;SDS011;35679;38.732;-121.358;2023-09-18T00:58:27;5.65;;;4.57;;
49784;SDS011;35679;38.732;-121.358;2023-09-18T01:01:17;5.75;;;5.05;;
49784;SDS011;35679;38.732;-121.358;2023-09-18T01:04:11;8.15;;;4.47;;
49784;SDS011;35679;38.732;-121.358;2023-09-18T01:07:01;6.13;;;4.60;;
49784;SDS011;35679;38.732;-121.358;2023-09-18T01:09:58;5.57;;;4.40;;
49784;SDS011;35679;38.732;-121.358;2023-09-18T01:12:51;7.35;;;5.18;;
49784;SDS011;35679;38.732;-121.358;2023-09-18T01:15:52;5.15;;;4.65;;
49784;SDS011;35679;38.732;-121.358;2023-09-18T01:18:50;5.93;;;4.38;;
49784;SDS011;35679;38.732;-121.358;2023-09-18T01:21:44;4.85;;;4.35;;
49784;SDS011;35679;38.732;-121.358;2023-09-18T01:24:34;5.68;;;4.47;;
49784;SDS011;35679;38.732;-121.358;2023-09-18T01:27:25;5.55;;;4.80;;
49784;SDS011;35679;38.732;-121.358;2023-09-18T01:30:14;6.28;;;4.28;;
49784;SDS011;35679;38.732;-121.358;2023-09-18T01:33:04;4.95;;;4.35;;
49784;SDS011;35679;38.732;-121.358;2023-09-18T01:35:53;5.53;;;4.75;;
49784;SDS011;35679;38.732;-121.358;2023-09-18T01:38:44;5.07;;;4.30;;
49784;SDS011;35679;38.732;-121.358;2023-09-18T01:41:34;6.43;;;4.55;;
49784;SDS011;35679;38.732;-121.358;2023-09-18T01:44:24;5.53;;;4.53;;
49784;SDS011;35679;38.732;-121.358;2023-09-18T01:47:15;5.53;;;5.03;;
49784;SDS011;35679;38.732;-121.358;2023-09-18T01:50:07;4.97;;;4.45;;
49784;SDS011;35679;38.732;-121.358;2023-09-18T01:52:58;4.65;;;4.25;;
49784;SDS011;35679;38.732;-121.358;2023-09-18T01:55:48;4.35;;;3.95;;
49784;SDS011;35679;38.732;-121.358;2023-09-18T01:58:37;5.07;;;4.32;;
49784;SDS011;35679;38.732;-121.358;2023-09-18T02:01:27;4.88;;;4.47;;
49784;SDS011;35679;38.732;-121.358;2023-09-18T02:04:19;8.82;;;4.30;;
49784;SDS011;35679;38.732;-121.358;2023-09-18T02:07:29;4.63;;;4.22;;
49784;SDS011;35679;38.732;-121.358;2023-09-18T02:10:20;6.55;;;4.55;;
49784;SDS011;35679;38.732;-121.358;2023-09-18T02:13:09;5.65;;;4.70;;
49784;SDS011;35679;38.732;-121.358;2023-09-18T02:15:59;5.18;;;4.68;;
49784;SDS011;35679;38.732;-121.358;2023-09-18T02:18:48;4.72;;;4.32;;
49784;SDS011;35679;38.732;-121.358;2023-09-18T02:21:38;5.75;;;4.40;;
49784;SDS011;35679;38.732;-121.358;2023-09-18T02:24:27;5.03;;;4.63;;
49784;SDS011;35679;38.732;-121.358;2023-09-18T02:27:16;5.43;;;4.93;;
49784;SDS011;35679;38.732;-121.358;2023-09-18T02:30:07;4.53;;;4.10;;
49784;SDS011;35679;38.732;-121.358;2023-09-18T02:32:58;5.38;;;4.88;;
49784;SDS011;35679;38.732;-121.358;2023-09-18T02:35:48;5.43;;;4.93;;
49784;SDS011;35679;38.732;-121.358;2023-09-18T02:38:38;5.93;;;4.80;;
49784;SDS011;35679;38.732;-121.358;2023-09-18T02:41:27;5.05;;;4.55;;
49784;SDS011;35679;38.732;-121.358;2023-09-18T02:44:17;5.10;;;4.60;;
49784;SDS011;35679;38.732;-121.358;2023-09-18T02:47:06;5.07;;;4.40;;
49784;SDS011;35679;38.732;-121.358;2023-09-18T02:49:56;4.90;;;4.50;;
49784;SDS011;35679;38.732;-121.358;2023-09-18T02:52:45;5.18;;;4.68;;
49784;SDS011;35679;38.732;-121.358;2023-09-18T02:55:35;5.00;;;4.60;;
49784;SDS011;35679;38.732;-121.358;2023-09-18T02:58:24;4.75;;;4.22;;
49784;SDS011;35679;38.732;-121.358;2023-09-18T03:01:15;5.20;;;4.70;;
49784;SDS011;35679;38.732;-121.358;2023-09-18T03:04:05;4.38;;;4.05;;
49784;SDS011;35679;38.732;-121.358;2023-09-18T03:06:55;4.75;;;4.10;;
49784;SDS011;35679;38.732;-121.358;2023-09-18T03:09:45;5.55;;;3.97;;
49784;SDS011;35679;38.732;-121.358;2023-09-18T03:12:34;4.63;;;4.18;;
49784;SDS011;35679;38.732;-121.358;2023-09-18T03:15:24;4.82;;;4.22;;
49784;SDS011;35679;38.732;-121.358;2023-09-18T03:18:14;5.70;;;3.95;;
49784;SDS011;35679;38.732;-121.358;2023-09-18T03:21:03;5.47;;;3.88;;
49784;SDS011;35679;38.732;-121.358;2023-09-18T03:23:53;5.57;;;3.88;;
49784;SDS011;35679;38.732;-121.358;2023-09-18T03:26:42;4.32;;;3.33;;
49784;SDS011;35679;38.732;-121.358;2023-09-18T03:29:31;6.13;;;3.58;;
49784;SDS011;35679;38.732;-121.358;2023-09-18T03:32:21;5.40;;;3.75;;
49784;SDS011;35679;38.732;-121.358;2023-09-18T03:35:11;5.82;;;3.85;;
49784;SDS011;35679;38.732;-121.358;2023-09-18T03:38:08;6.38;;;3.78;;
49784;SDS011;35679;38.732;-121.358;2023-09-18T03:40:59;5.03;;;3.45;;
49784;SDS011;35679;38.732;-121.358;2023-09-18T03:43:50;4.53;;;4.13;;
49784;SDS011;35679;38.732;-121.358;2023-09-18T03:46:40;7.10;;;4.45;;
49784;SDS011;35679;38.732;-121.358;2023-09-18T03:49:30;4.85;;;4.45;;
49784;SDS011;35679;38.732;-121.358;2023-09-18T03:52:19;5.25;;;4.22;;
49784;SDS011;35679;38.732;-121.358;2023-09-18T03:55:09;5.00;;;4.60;;
49784;SDS011;35679;38.732;-121.358;2023-09-18T03:57:58;4.93;;;4.53;;
49784;SDS011;35679;38.732;-121.358;2023-09-18T04:00:48;5.85;;;5.45;;
49784;SDS011;35679;38.732;-121.358;2023-09-18T04:03:38;5.80;;;5.30;;
49784;SDS011;35679;38.732;-121.358;2023-09-18T04:06:32;5.65;;;4.90;;
49784;SDS011;35679;38.732;-121.358;2023-09-18T04:09:26;5.35;;;5.03;;
49784;SDS011;35679;38.732;-121.358;2023-09-18T04:12:16;5.35;;;4.95;;
49784;SDS011;35679;38.732;-121.358;2023-09-18T04:15:06;4.60;;;4.20;;
49784;SDS011;35679;38.732;-121.358;2023-09-18T04:17:56;5.05;;;4.50;;
49784;SDS011;35679;38.732;-121.358;2023-09-18T04:20:45;6.00;;;4.30;;
49784;SDS011;35679;38.732;-121.358;2023-09-18T04:23:35;4.40;;;4.00;;
49784;SDS011;35679;38.732;-121.358;2023-09-18T04:26:26;4.90;;;4.20;;
49784;SDS011;35679;38.732;-121.358;2023-09-18T04:29:19;4.40;;;4.00;;
49784;SDS011;35679;38.732;-121.358;2023-09-18T04:32:09;4.25;;;3.90;;
49784;SDS011;35679;38.732;-121.358;2023-09-18T04:34:59;4.40;;;4.00;;
49784;SDS011;35679;38.732;-121.358;2023-09-18T04:37:48;4.25;;;3.90;;
49784;SDS011;35679;38.732;-121.358;2023-09-18T04:40:38;4.70;;;4.07;;
49784;SDS011;35679;38.732;-121.358;2023-09-18T04:43:29;5.20;;;4.70;;
49784;SDS011;35679;38.732;-121.358;2023-09-18T04:46:20;4.55;;;4.15;;
49784;SDS011;35679;38.732;-121.358;2023-09-18T04:49:09;4.50;;;4.10;;
49784;SDS011;35679;38.732;-121.358;2023-09-18T04:51:59;4.78;;;4.22;;
49784;SDS011;35679;38.732;-121.358;2023-09-18T04:54:48;4.68;;;4.25;;
49784;SDS011;35679;38.732;-121.358;2023-09-18T04:57:38;4.75;;;4.20;;
49784;SDS011;35679;38.732;-121.358;2023-09-18T05:00:27;4.40;;;4.00;;
49784;SDS011;35679;38.732;-121.358;2023-09-18T05:03:18;4.57;;;4.18;;
49784;SDS011;35679;38.732;-121.358;2023-09-18T05:06:07;5.45;;;4.20;;
49784;SDS011;35679;38.732;-121.358;2023-09-18T05:08:57;4.72;;;4.32;;
49784;SDS011;35679;38.732;-121.358;2023-09-18T05:11:46;4.53;;;3.97;;
49784;SDS011;35679;38.732;-121.358;2023-09-18T05:14:37;3.60;;;3.40;;
49784;SDS011;35679;38.732;-121.358;2023-09-18T05:17:47;6.70;;;6.30;;
49784;SDS011;35679;38.732;-121.358;2023-09-18T05:20:40;7.57;;;6.97;;
49784;SDS011;35679;38.732;-121.358;2023-09-18T05:23:30;6.18;;;5.78;;
49784;SDS011;35679;38.732;-121.358;2023-09-18T05:26:19;6.15;;;5.72;;
49784;SDS011;35679;38.732;-121.358;2023-09-18T05:29:12;6.47;;;5.97;;
49784;SDS011;35679;38.732;-121.358;2023-09-18T05:32:01;6.93;;;6.32;;
49784;SDS011;35679;38.732;-121.358;2023-09-18T05:34:52;6.85;;;6.35;;
49784;SDS011;35679;38.732;-121.358;2023-09-18T05:37:41;7.50;;;7.07;;
49784;SDS011;35679;38.732;-121.358;2023-09-18T05:40:32;4.13;;;3.67;;
49784;SDS011;35679;38.732;-121.358;2023-09-18T05:43:21;4.15;;;3.75;;
49784;SDS011;35679;38.732;-121.358;2023-09-18T05:46:11;4.15;;;3.80;;
49784;SDS011;35679;38.732;-121.358;2023-09-18T05:49:00;4.90;;;4.00;;
49784;SDS011;35679;38.732;-121.358;2023-09-18T05:51:50;4.25;;;3.72;;
49784;SDS011;35679;38.732;-121.358;2023-09-18T05:54:39;5.32;;;3.40;;
49784;SDS011;35679;38.732;-121.358;2023-09-18T05:57:28;4.20;;;3.80;;
49784;SDS011;35679;38.732;-121.358;2023-09-18T06:00:18;6.40;;;4.38;;
49784;SDS011;35679;38.732;-121.358;2023-09-18T06:03:09;4.28;;;3.88;;
49784;SDS011;35679;38.732;-121.358;2023-09-18T06:06:06;4.50;;;4.10;;
49784;SDS011;35679;38.732;-121.358;2023-09-18T06:08:56;4.20;;;3.80;;
49784;SDS011;35679;38.732;-121.358;2023-09-18T06:11:46;3.92;;;3.55;;
49784;SDS011;35679;38.732;-121.358;2023-09-18T06:14:35;5.10;;;3.58;;
49784;SDS011;35679;38.732;-121.358;2023-09-18T06:17:26;4.97;;;3.70;;
49784;SDS011;35679;38.732;-121.358;2023-09-18T06:20:16;4.63;;;4.20;;
49784;SDS011;35679;38.732;-121.358;2023-09-18T06:23:05;4.10;;;3.60;;
49784;SDS011;35679;38.732;-121.358;2023-09-18T06:25:54;4.07;;;3.70;;
49784;SDS011;35679;38.732;-121.358;2023-09-18T06:28:44;3.92;;;3.63;;
49784;SDS011;35679;38.732;-121.358;2023-09-18T06:31:37;4.47;;;4.07;;
49784;SDS011;35679;38.732;-121.358;2023-09-18T06:34:26;4.22;;;3.83;;
49784;SDS011;35679;38.732;-121.358;2023-09-18T06:37:16;4.05;;;3.65;;
49784;SDS011;35679;38.732;-121.358;2023-09-18T06:40:07;4.63;;;3.70;;
49784;SDS011;35679;38.732;-121.358;2023-09-18T06:43:00;4.40;;;4.00;;
49784;SDS011;35679;38.732;-121.358;2023-09-18T06:45:49;5.60;;;4.22;;
49784;SDS011;35679;38.732;-121.358;2023-09-18T06:48:39;4.32;;;3.78;;
49784;SDS011;35679;38.732;-121.358;2023-09-18T06:51:28;4.40;;;4.00;;
49784;SDS011;35679;38.732;-121.358;2023-09-18T06:54:23;4.60;;;4.20;;
49784;SDS011;35679;38.732;-121.358;2023-09-18T06:57:12;4.40;;;4.00;;
49784;SDS011;35679;38.732;-121.358;2023-09-18T07:00:02;4.47;;;4.07;;
49784;SDS011;35679;38.732;-121.358;2023-09-18T07:02:53;4.85;;;4.40;;
49784;SDS011;35679;38.732;-121.358;2023-09-18T07:05:43;4.22;;;3.80;;
49784;SDS011;35679;38.732;-121.358;2023-09-18T07:08:34;4.87;;;4.37;;
49784;SDS011;35679;38.732;-121.358;2023-09-18T07:11:25;5.03;;;4.20;;
49784;SDS011;35679;38.732;-121.358;2023-09-18T07:14:14;4.47;;;4.00;;
49784;SDS011;35679;38.732;-121.358;2023-09-18T07:17:04;4.53;;;4.10;;
49784;SDS011;35679;38.732;-121.358;2023-09-18T07:19:53;4.90;;;3.90;;
49784;SDS011;35679;38.732;-121.358;2023-09-18T07:22:45;3.95;;;3.58;;
49784;SDS011;35679;38.732;-121.358;2023-09-18T07:25:38;5.03;;;4.22;;
49784;SDS011;35679;38.732;-121.358;2023-09-18T07:28:28;4.28;;;3.83;;
49784;SDS011;35679;38.732;-121.358;2023-09-18T07:31:18;4.90;;;4.20;;
49784;SDS011;35679;38.732;-121.358;2023-09-18T07:34:08;4.40;;;4.00;;
49784;SDS011;35679;38.732;-121.358;2023-09-18T07:37:00;4.57;;;3.88;;
49784;SDS011;35679;38.732;-121.358;2023-09-18T07:39:50;4.63;;;4.03;;
49784;SDS011;35679;38.732;-121.358;2023-09-18T07:42:39;5.05;;;4.55;;
49784;SDS011;35679;38.732;-121.358;2023-09-18T07:45:28;4.57;;;3.90;;
49784;SDS011;35679;38.732;-121.358;2023-09-18T07:48:18;6.22;;;4.30;;
49784;SDS011;35679;38.732;-121.358;2023-09-18T07:51:11;5.82;;;4.20;;
49784;SDS011;35679;38.732;-121.358;2023-09-18T07:54:01;4.82;;;3.83;;
49784;SDS011;35679;38.732;-121.358;2023-09-18T07:56:51;4.43;;;3.95;;
49784;SDS011;35679;38.732;-121.358;2023-09-18T07:59:40;4.40;;;4.00;;
49784;SDS011;35679;38.732;-121.358;2023-09-18T08:02:30;6.72;;;3.97;;
49784;SDS011;35679;38.732;-121.358;2023-09-18T08:05:20;4.82;;;4.32;;
49784;SDS011;35679;38.732;-121.358;2023-09-18T08:08:09;3.88;;;3.50;;
49784;SDS011;35679;38.732;-121.358;2023-09-18T08:11:00;4.18;;;3.78;;
49784;SDS011;35679;38.732;-121.358;2023-09-18T08:13:57;5.60;;;4.40;;
49784;SDS011;35679;38.732;-121.358;2023-09-18T08:16:46;6.10;;;4.30;;
49784;SDS011;35679;38.732;-121.358;2023-09-18T08:19:35;5.50;;;4.65;;
49784;SDS011;35679;38.732;-121.358;2023-09-18T08:22:25;4.35;;;3.95;;
49784;SDS011;35679;38.732;-121.358;2023-09-18T08:25:14;4.03;;;3.63;;
49784;SDS011;35679;38.732;-121.358;2023-09-18T08:28:04;4.95;;;4.40;;
49784;SDS011;35679;38.732;-121.358;2023-09-18T08:30:56;5.22;;;4.30;;
49784;SDS011;35679;38.732;-121.358;2023-09-18T08:33:47;4.15;;;3.75;;
49784;SDS011;35679;38.732;-121.358;2023-09-18T08:36:36;4.32;;;3.92;;
49784;SDS011;35679;38.732;-121.358;2023-09-18T08:39:25;4.60;;;4.03;;
49784;SDS011;35679;38.732;-121.358;2023-09-18T08:42:15;4.90;;;4.30;;
49784;SDS011;35679;38.732;-121.358;2023-09-18T08:45:08;4.63;;;4.10;;
49784;SDS011;35679;38.732;-121.358;2023-09-18T08:47:59;4.72;;;3.75;;
49784;SDS011;35679;38.732;-121.358;2023-09-18T08:50:50;4.88;;;4.38;;
49784;SDS011;35679;38.732;-121.358;2023-09-18T08:53:40;4.93;;;4.03;;
49784;SDS011;35679;38.732;-121.358;2023-09-18T08:56:29;5.78;;;3.78;;
49784;SDS011;35679;38.732;-121.358;2023-09-18T08:59:22;4.68;;;4.03;;
49784;SDS011;35679;38.732;-121.358;2023-09-18T09:02:15;6.70;;;4.45;;
49784;SDS011;35679;38.732;-121.358;2023-09-18T09:05:05;4.68;;;3.75;;
49784;SDS011;35679;38.732;-121.358;2023-09-18T09:07:55;5.43;;;4.03;;
49784;SDS011;35679;38.732;-121.358;2023-09-18T09:10:44;4.32;;;3.92;;
49784;SDS011;35679;38.732;-121.358;2023-09-18T09:13:34;4.78;;;4.35;;
49784;SDS011;35679;38.732;-121.358;2023-09-18T09:16:32;6.03;;;4.43;;
49784;SDS011;35679;38.732;-121.358;2023-09-18T09:19:30;5.20;;;4.30;;
49784;SDS011;35679;38.732;-121.358;2023-09-18T09:22:21;4.32;;;3.85;;
49784;SDS011;35679;38.732;-121.358;2023-09-18T09:28:08;7.43;;;4.32;;
49784;SDS011;35679;38.732;-121.358;2023-09-18T09:31:01;5.30;;;4.18;;
49784;SDS011;35679;38.732;-121.358;2023-09-18T09:33:51;4.63;;;4.20;;
49784;SDS011;35679;38.732;-121.358;2023-09-18T09:36:54;4.97;;;4.10;;
49784;SDS011;35679;38.732;-121.358;2023-09-18T09:39:50;4.45;;;3.85;;
49784;SDS011;35679;38.732;-121.358;2023-09-18T09:42:40;5.60;;;3.92;;
49784;SDS011;35679;38.732;-121.358;2023-09-18T09:45:30;4.43;;;3.95;;
49784;SDS011;35679;38.732;-121.358;2023-09-18T09:48:27;6.10;;;3.83;;
49784;SDS011;35679;38.732;-121.358;2023-09-18T09:51:19;6.53;;;4.20;;
49784;SDS011;35679;38.732;-121.358;2023-09-18T09:54:09;5.18;;;4.30;;
49784;SDS011;35679;38.732;-121.358;2023-09-18T09:57:03;6.30;;;4.15;;
49784;SDS011;35679;38.732;-121.358;2023-09-18T09:59:55;4.95;;;4.22;;
49784;SDS011;35679;38.732;-121.358;2023-09-18T10:03:10;5.32;;;4.05;;
49784;SDS011;35679;38.732;-121.358;2023-09-18T10:06:01;5.82;;;4.07;;
49784;SDS011;35679;38.732;-121.358;2023-09-18T10:08:53;6.00;;;4.33;;
49784;SDS011;35679;38.732;-121.358;2023-09-18T10:11:45;4.38;;;3.97;;
49784;SDS011;35679;38.732;-121.358;2023-09-18T10:14:40;4.78;;;4.20;;
49784;SDS011;35679;38.732;-121.358;2023-09-18T10:17:48;4.68;;;4.10;;
49784;SDS011;35679;38.732;-121.358;2023-09-18T10:23:45;4.00;;;3.60;;
49784;SDS011;35679;38.732;-121.358;2023-09-18T10:26:37;4.95;;;4.13;;
49784;SDS011;35679;38.732;-121.358;2023-09-18T10:29:33;5.43;;;3.75;;
49784;SDS011;35679;38.732;-121.358;2023-09-18T10:32:24;4.47;;;3.97;;
49784;SDS011;35679;38.732;-121.358;2023-09-18T10:35:17;4.03;;;3.53;;
49784;SDS011;35679;38.732;-121.358;2023-09-18T10:38:09;4.80;;;4.07;;
49784;SDS011;35679;38.732;-121.358;2023-09-18T10:40:59;5.50;;;3.80;;
49784;SDS011;35679;38.732;-121.358;2023-09-18T10:43:51;4.03;;;3.63;;
49784;SDS011;35679;38.732;-121.358;2023-09-18T10:46:48;4.72;;;4.07;;
49784;SDS011;35679;38.732;-121.358;2023-09-18T10:49:40;4.22;;;3.67;;
49784;SDS011;35679;38.732;-121.358;2023-09-18T10:52:29;5.57;;;4.50;;
49784;SDS011;35679;38.732;-121.358;2023-09-18T10:55:20;4.25;;;3.60;;
49784;SDS011;35679;38.732;-121.358;2023-09-18T10:58:12;4.47;;;3.58;;
49784;SDS011;35679;38.732;-121.358;2023-09-18T11:01:13;4.15;;;3.50;;
49784;SDS011;35679;38.732;-121.358;2023-09-18T11:04:03;5.72;;;4.00;;
49784;SDS011;35679;38.732;-121.358;2023-09-18T11:09:48;5.50;;;4.50;;
49784;SDS011;35679;38.732;-121.358;2023-09-18T11:12:44;6.65;;;4.20;;
49784;SDS011;35679;38.732;-121.358;2023-09-18T11:15:34;4.72;;;4.22;;
49784;SDS011;35679;38.732;-121.358;2023-09-18T11:18:23;4.15;;;3.75;;
49784;SDS011;35679;38.732;-121.358;2023-09-18T11:21:25;5.82;;;3.97;;
49784;SDS011;35679;38.732;-121.358;2023-09-18T11:24:16;4.13;;;3.72;;
49784;SDS011;35679;38.732;-121.358;2023-09-18T11:27:08;5.05;;;4.00;;
49784;SDS011;35679;38.732;-121.358;2023-09-18T11:29:58;7.35;;;4.78;;
49784;SDS011;35679;38.732;-121.358;2023-09-18T11:32:49;5.18;;;4.05;;
49784;SDS011;35679;38.732;-121.358;2023-09-18T11:35:50;5.38;;;4.22;;
49784;SDS011;35679;38.732;-121.358;2023-09-18T11:38:56;5.25;;;4.28;;
49784;SDS011;35679;38.732;-121.358;2023-09-18T11:41:47;5.68;;;4.18;;
49784;SDS011;35679;38.732;-121.358;2023-09-18T11:44:38;5.53;;;4.35;;
49784;SDS011;35679;38.732;-121.358;2023-09-18T11:47:34;6.28;;;4.55;;
49784;SDS011;35679;38.732;-121.358;2023-09-18T11:50:31;5.50;;;4.30;;
49784;SDS011;35679;38.732;-121.358;2023-09-18T11:53:21;4.60;;;4.00;;
49784;SDS011;35679;38.732;-121.358;2023-09-18T11:56:12;8.10;;;4.57;;
49784;SDS011;35679;38.732;-121.358;2023-09-18T11:59:07;6.18;;;4.13;;
49784;SDS011;35679;38.732;-121.358;2023-09-18T12:01:57;6.80;;;4.20;;
49784;SDS011;35679;38.732;-121.358;2023-09-18T12:04:54;5.72;;;4.32;;
49784;SDS011;35679;38.732;-121.358;2023-09-18T12:07:44;5.68;;;4.40;;
49784;SDS011;35679;38.732;-121.358;2023-09-18T12:10:35;7.40;;;4.30;;
49784;SDS011;35679;38.732;-121.358;2023-09-18T12:13:25;5.85;;;4.70;;
49784;SDS011;35679;38.732;-121.358;2023-09-18T12:16:15;4.63;;;4.15;;
49784;SDS011;35679;38.732;-121.358;2023-09-18T12:19:04;4.97;;;4.25;;
49784;SDS011;35679;38.732;-121.358;2023-09-18T12:21:55;5.97;;;4.05;;
49784;SDS011;35679;38.732;-121.358;2023-09-18T12:24:45;8.40;;;4.05;;
49784;SDS011;35679;38.732;-121.358;2023-09-18T12:27:35;5.35;;;4.40;;
49784;SDS011;35679;38.732;-121.358;2023-09-18T12:30:25;7.00;;;4.60;;
49784;SDS011;35679;38.732;-121.358;2023-09-18T12:33:15;7.60;;;4.60;;
49784;SDS011;35679;38.732;-121.358;2023-09-18T12:36:07;5.15;;;4.18;;
49784;SDS011;35679;38.732;-121.358;2023-09-18T12:38:57;6.47;;;4.32;;
49784;SDS011;35679;38.732;-121.358;2023-09-18T12:41:51;8.27;;;4.07;;
49784;SDS011;35679;38.732;-121.358;2023-09-18T12:44:41;5.72;;;4.32;;
49784;SDS011;35679;38.732;-121.358;2023-09-18T12:47:30;7.13;;;4.60;;
49784;SDS011;35679;38.732;-121.358;2023-09-18T12:50:20;6.97;;;4.22;;
49784;SDS011;35679;38.732;-121.358;2023-09-18T12:53:10;7.07;;;4.53;;
49784;SDS011;35679;38.732;-121.358;2023-09-18T12:56:07;8.25;;;4.38;;
49784;SDS011;35679;38.732;-121.358;2023-09-18T12:58:58;6.88;;;4.47;;
49784;SDS011;35679;38.732;-121.358;2023-09-18T13:02:00;7.25;;;4.32;;
49784;SDS011;35679;38.732;-121.358;2023-09-18T13:04:52;6.95;;;4.38;;
49784;SDS011;35679;38.732;-121.358;2023-09-18T13:07:43;6.05;;;4.15;;
49784;SDS011;35679;38.732;-121.358;2023-09-18T13:10:45;6.65;;;4.55;;
49784;SDS011;35679;38.732;-121.358;2023-09-18T13:13:38;5.55;;;4.40;;
49784;SDS011;35679;38.732;-121.358;2023-09-18T13:16:27;7.55;;;4.35;;
49784;SDS011;35679;38.732;-121.358;2023-09-18T13:19:17;6.03;;;4.43;;
49784;SDS011;35679;38.732;-121.358;2023-09-18T13:22:07;5.90;;;4.57;;
49784;SDS011;35679;38.732;-121.358;2023-09-18T13:24:57;7.03;;;4.88;;
49784;SDS011;35679;38.732;-121.358;2023-09-18T13:27:46;5.82;;;4.40;;
49784;SDS011;35679;38.732;-121.358;2023-09-18T13:30:36;7.68;;;4.78;;
49784;SDS011;35679;38.732;-121.358;2023-09-18T13:33:29;6.55;;;4.80;;
49784;SDS011;35679;38.732;-121.358;2023-09-18T13:36:20;8.32;;;4.50;;
49784;SDS011;35679;38.732;-121.358;2023-09-18T13:39:09;7.03;;;4.32;;
49784;SDS011;35679;38.732;-121.358;2023-09-18T13:41:58;4.95;;;4.28;;
49784;SDS011;35679;38.732;-121.358;2023-09-18T13:44:48;7.65;;;4.60;;
49784;SDS011;35679;38.732;-121.358;2023-09-18T13:47:38;6.03;;;4.05;;
49784;SDS011;35679;38.732;-121.358;2023-09-18T13:50:27;5.82;;;4.78;;
49784;SDS011;35679;38.732;-121.358;2023-09-18T13:53:17;5.32;;;4.45;;
49784;SDS011;35679;38.732;-121.358;2023-09-18T13:56:07;7.57;;;4.47;;
49784;SDS011;35679;38.732;-121.358;2023-09-18T13:58:56;7.40;;;4.82;;
49784;SDS011;35679;38.732;-121.358;2023-09-18T14:01:45;5.22;;;4.40;;
49784;SDS011;35679;38.732;-121.358;2023-09-18T14:04:35;8.45;;;4.88;;
49784;SDS011;35679;38.732;-121.358;2023-09-18T14:07:25;9.15;;;4.60;;
49784;SDS011;35679;38.732;-121.358;2023-09-18T14:10:14;5.25;;;4.20;;
49784;SDS011;35679;38.732;-121.358;2023-09-18T14:13:05;6.05;;;4.50;;
49784;SDS011;35679;38.732;-121.358;2023-09-18T14:15:56;6.97;;;4.53;;
49784;SDS011;35679;38.732;-121.358;2023-09-18T14:18:45;6.40;;;4.50;;
49784;SDS011;35679;38.732;-121.358;2023-09-18T14:21:34;7.38;;;4.68;;
49784;SDS011;35679;38.732;-121.358;2023-09-18T14:24:25;8.48;;;4.65;;
49784;SDS011;35679;38.732;-121.358;2023-09-18T14:27:15;6.07;;;4.38;;
49784;SDS011;35679;38.732;-121.358;2023-09-18T14:30:04;6.65;;;4.90;;
49784;SDS011;35679;38.732;-121.358;2023-09-18T14:32:55;5.72;;;4.40;;
49784;SDS011;35679;38.732;-121.358;2023-09-18T14:35:45;6.47;;;4.65;;
49784;SDS011;35679;38.732;-121.358;2023-09-18T14:38:34;4.95;;;4.40;;
49784;SDS011;35679;38.732;-121.358;2023-09-18T14:41:24;8.07;;;4.70;;
49784;SDS011;35679;38.732;-121.358;2023-09-18T14:44:13;6.05;;;4.72;;
49784;SDS011;35679;38.732;-121.358;2023-09-18T14:47:03;7.50;;;4.68;;
49784;SDS011;35679;38.732;-121.358;2023-09-18T14:49:54;5.07;;;4.25;;
49784;SDS011;35679;38.732;-121.358;2023-09-18T14:52:43;5.18;;;4.68;;
49784;SDS011;35679;38.732;-121.358;2023-09-18T14:55:33;5.25;;;4.75;;
49784;SDS011;35679;38.732;-121.358;2023-09-18T14:58:23;5.15;;;4.30;;
49784;SDS011;35679;38.732;-121.358;2023-09-18T15:01:13;6.15;;;4.63;;
49784;SDS011;35679;38.732;-121.358;2023-09-18T15:04:02;6.18;;;5.10;;
49784;SDS011;35679;38.732;-121.358;2023-09-18T15:06:52;5.88;;;4.55;;
49784;SDS011;35679;38.732;-121.358;2023-09-18T15:09:41;4.93;;;4.43;;
49784;SDS011;35679;38.732;-121.358;2023-09-18T15:12:31;5.30;;;4.65;;
49784;SDS011;35679;38.732;-121.358;2023-09-18T15:15:20;7.10;;;4.40;;
49784;SDS011;35679;38.732;-121.358;2023-09-18T15:18:10;4.75;;;4.35;;
49784;SDS011;35679;38.732;-121.358;2023-09-18T15:21:02;5.50;;;4.30;;
49784;SDS011;35679;38.732;-121.358;2023-09-18T15:23:52;6.05;;;4.40;;
49784;SDS011;35679;38.732;-121.358;2023-09-18T15:26:41;5.82;;;4.70;;
49784;SDS011;35679;38.732;-121.358;2023-09-18T15:29:30;5.65;;;4.28;;
49784;SDS011;35679;38.732;-121.358;2023-09-18T15:32:22;5.18;;;4.43;;
49784;SDS011;35679;38.732;-121.358;2023-09-18T15:35:11;5.30;;;4.57;;
49784;SDS011;35679;38.732;-121.358;2023-09-18T15:38:01;7.00;;;4.55;;
49784;SDS011;35679;38.732;-121.358;2023-09-18T15:40:51;5.53;;;5.03;;
49784;SDS011;35679;38.732;-121.358;2023-09-18T15:43:40;7.70;;;4.75;;
49784;SDS011;35679;38.732;-121.358;2023-09-18T15:46:30;5.60;;;5.05;;
49784;SDS011;35679;38.732;-121.358;2023-09-18T15:49:20;6.35;;;5.75;;
49784;SDS011;35679;38.732;-121.358;2023-09-18T15:52:09;6.93;;;5.32;;
49784;SDS011;35679;38.732;-121.358;2023-09-18T15:54:59;5.38;;;4.82;;
49784;SDS011;35679;38.732;-121.358;2023-09-18T15:57:48;6.13;;;5.53;;
49784;SDS011;35679;38.732;-121.358;2023-09-18T16:00:37;5.72;;;4.40;;
49784;SDS011;35679;38.732;-121.358;2023-09-18T16:03:27;6.43;;;4.90;;
49784;SDS011;35679;38.732;-121.358;2023-09-18T16:06:17;5.80;;;4.63;;
49784;SDS011;35679;38.732;-121.358;2023-09-18T16:09:06;6.00;;;5.43;;
49784;SDS011;35679;38.732;-121.358;2023-09-18T16:11:58;5.45;;;4.95;;
49784;SDS011;35679;38.732;-121.358;2023-09-18T16:14:48;5.47;;;4.38;;
49784;SDS011;35679;38.732;-121.358;2023-09-18T16:17:37;5.28;;;4.63;;
49784;SDS011;35679;38.732;-121.358;2023-09-18T16:20:27;6.28;;;5.00;;
49784;SDS011;35679;38.732;-121.358;2023-09-18T16:23:16;7.20;;;4.97;;
49784;SDS011;35679;38.732;-121.358;2023-09-18T16:26:06;5.07;;;4.63;;
49784;SDS011;35679;38.732;-121.358;2023-09-18T16:28:55;5.53;;;4.85;;
49784;SDS011;35679;38.732;-121.358;2023-09-18T16:31:46;4.90;;;4.47;;
49784;SDS011;35679;38.732;-121.358;2023-09-18T16:34:36;6.07;;;4.70;;